Shunyo Maru No.8 — JK5145 — position and weather

sailwx.info

Track history (hours):
 
Tides and Currents Weather Stations Pressure Air Temp Water Temp Dewpoint Dewpoint Depression Visibility Wind Speed Wind Dir Waves Ship Positions

Shunyo Maru No.8

Last reported at 2017-Oct-27 10:27 UTC. Time now 2017-Nov-17 23:13 UTC.
Position N 34°36' E 134°53'.
Warning: this ship's position is 21 days out of date.

Length 55 m; draft 3 m.

Type: Tanker. MMSI: 431400039.

Date/timePositionNaut miles runAvg speedWind from/ knotsBaromVisibWave heightAir tempDewpointWater temp
2017-Oct-27 10:27N 34°36' E 134°53'710.3
2017-Oct-27 09:45N 34°37' E 135°01'2 9.6
2017-Oct-27 09:30N 34°36' E 135°04'611.4
2017-Oct-27 09:00N 34°37' E 135°11'611.3
2017-Oct-27 08:30N 34°38' E 135°17'611.4
2017-Oct-27 08:00N 34°40' E 135°24'1 1.7
2017-Oct-27 07:30N 34°40' E 135°25'0 0.0
2017-Oct-27 07:00N 34°40' E 135°25'0 0.0
2017-Oct-27 06:30N 34°40' E 135°25'0 0.8
2017-Oct-27 05:59N 34°40' E 135°25'0 0.0
2017-Oct-27 05:30N 34°40' E 135°25'0 0.0
2017-Oct-27 04:53N 34°40' E 135°25'0 0.0
2017-Oct-27 04:28N 34°40' E 135°25'0 0.0
2017-Oct-27 04:00N 34°40' E 135°25'3 5.8
2017-Oct-27 03:30N 34°38' E 135°23'5 9.1
2017-Oct-27 03:00N 34°33' E 135°25'1 0.5
2017-Oct-27 00:30N 34°32' E 135°25'0 0.0
2017-Oct-27 00:00N 34°32' E 135°25'0 0.0
2017-Oct-26 23:29N 34°32' E 135°25'0 0.0
2017-Oct-26 23:00N 34°32' E 135°25'1 2.5
2017-Oct-26 22:30N 34°33' E 135°24'2 0.1
2017-Oct-26 02:33N 34°31' E 135°24'0 2.4
2017-Oct-26 02:30N 34°31' E 135°24'5 9.8
2017-Oct-26 01:59N 34°35' E 135°22'5 9.9
2017-Oct-26 01:30N 34°39' E 135°25'0 0.1
2017-Oct-26 01:00N 34°39' E 135°25'0 0.0
2017-Oct-26 00:29N 34°39' E 135°25'0 0.0
2017-Oct-25 23:56N 34°39' E 135°25'0 0.0
2017-Oct-25 23:27N 34°39' E 135°25'0 0.0
2017-Oct-25 23:00N 34°39' E 135°25'3 5.2
2017-Oct-25 22:30N 34°38' E 135°23'3 5.1
2017-Oct-25 22:00N 34°37' E 135°19'0 0.0
2017-Oct-25 21:30N 34°37' E 135°19'0 0.0
2017-Oct-25 21:00N 34°37' E 135°19'0 0.0
2017-Oct-25 20:30N 34°37' E 135°19'0 0.0
2017-Oct-25 20:00N 34°37' E 135°19'0 0.0
2017-Oct-25 19:30N 34°37' E 135°19'0 0.0
2017-Oct-25 19:00N 34°37' E 135°19'0 0.0
2017-Oct-25 18:30N 34°37' E 135°19'0 0.6
2017-Oct-25 18:00N 34°37' E 135°19'510.2
2017-Oct-25 17:30N 34°33' E 135°15'510.5
2017-Oct-25 17:00N 34°29' E 135°12'510.4
2017-Oct-25 16:30N 34°24' E 135°09'510.3
2017-Oct-25 15:59N 34°20' E 135°05'510.0
2017-Oct-25 15:30N 34°15' E 135°03'510.7
2017-Oct-25 15:00N 34°10' E 135°02'510.5
2017-Oct-25 14:30N 34°05' E 135°02'208 8.5
2017-Oct-24 14:04N 34°48' E 139°09'210.7
2017-Oct-24 13:53N 34°50' E 139°11'1310.1
2017-Oct-24 12:37N 34°57' E 139°23'4 8.8
2017-Oct-24 12:12N 34°59' E 139°27'2 9.2
2017-Oct-24 11:58N 35°00' E 139°29'5 9.9
2017-Oct-24 11:30N 35°03' E 139°34'510.1
2017-Oct-24 11:00N 35°06' E 139°39'511.1
2017-Oct-24 10:30N 35°10' E 139°44'511.1
2017-Oct-24 10:00N 35°15' E 139°46'611.2
2017-Oct-24 09:30N 35°20' E 139°43'510.7
2017-Oct-24 09:00N 35°25' E 139°43'611.3
2017-Oct-24 08:30N 35°28' E 139°49'611.0
2017-Oct-24 07:59N 35°31' E 139°55'  
2017-Oct-19 07:38N 35°30' E 140°01'1 0.4
2017-Oct-19 05:21N 35°30' E 139°60'3 7.0
2017-Oct-19 04:57N 35°30' E 139°57'4 9.8
2017-Oct-19 04:30N 35°28' E 139°51'5 9.6
2017-Oct-19 04:00N 35°25' E 139°47'5 9.9
2017-Oct-19 03:31N 35°20' E 139°45'5 9.2
2017-Oct-19 03:00N 35°16' E 139°46'4 8.9
2017-Oct-19 02:30N 35°12' E 139°47'4 8.9
2017-Oct-19 02:00N 35°07' E 139°46'4 8.0
2017-Oct-19 01:30N 35°04' E 139°43'4 8.3
2017-Oct-19 01:01N 35°01' E 139°39'5 9.3
2017-Oct-19 00:31N 34°59' E 139°34'5 9.4
2017-Oct-18 23:59N 34°56' E 139°29'  
Track history (hours):
 
Tides and Currents Weather Stations Pressure Air Temp Water Temp Dewpoint Dewpoint Depression Visibility Wind Speed Wind Dir Waves Ship Positions

Shunyo Maru No.8

Last reported at 2017-Oct-27 10:27 UTC. Time now 2017-Nov-17 23:13 UTC.
Position N 34°36' E 134°53'.
Warning: this ship's position is 21 days out of date.

Length 55 m; draft 3 m.

Type: Tanker. MMSI: 431400039.

Date/timePositionNaut miles runAvg speedWind from/ knotsBaromVisibWave heightAir tempDewpointWater temp
2017-Oct-27 10:27N 34°36' E 134°53'710.3
2017-Oct-27 09:45N 34°37' E 135°01'2 9.6
2017-Oct-27 09:30N 34°36' E 135°04'611.4
2017-Oct-27 09:00N 34°37' E 135°11'611.3
2017-Oct-27 08:30N 34°38' E 135°17'611.4
2017-Oct-27 08:00N 34°40' E 135°24'1 1.7
2017-Oct-27 07:30N 34°40' E 135°25'0 0.0
2017-Oct-27 07:00N 34°40' E 135°25'0 0.0
2017-Oct-27 06:30N 34°40' E 135°25'0 0.8
2017-Oct-27 05:59N 34°40' E 135°25'0 0.0
2017-Oct-27 05:30N 34°40' E 135°25'0 0.0
2017-Oct-27 04:53N 34°40' E 135°25'0 0.0
2017-Oct-27 04:28N 34°40' E 135°25'0 0.0
2017-Oct-27 04:00N 34°40' E 135°25'3 5.8
2017-Oct-27 03:30N 34°38' E 135°23'5 9.1
2017-Oct-27 03:00N 34°33' E 135°25'1 0.5
2017-Oct-27 00:30N 34°32' E 135°25'0 0.0
2017-Oct-27 00:00N 34°32' E 135°25'0 0.0
2017-Oct-26 23:29N 34°32' E 135°25'0 0.0
2017-Oct-26 23:00N 34°32' E 135°25'1 2.5
2017-Oct-26 22:30N 34°33' E 135°24'2 0.1
2017-Oct-26 02:33N 34°31' E 135°24'0 2.4
2017-Oct-26 02:30N 34°31' E 135°24'5 9.8
2017-Oct-26 01:59N 34°35' E 135°22'5 9.9
2017-Oct-26 01:30N 34°39' E 135°25'0 0.1
2017-Oct-26 01:00N 34°39' E 135°25'0 0.0
2017-Oct-26 00:29N 34°39' E 135°25'0 0.0
2017-Oct-25 23:56N 34°39' E 135°25'0 0.0
2017-Oct-25 23:27N 34°39' E 135°25'0 0.0
2017-Oct-25 23:00N 34°39' E 135°25'3 5.2
2017-Oct-25 22:30N 34°38' E 135°23'3 5.1
2017-Oct-25 22:00N 34°37' E 135°19'0 0.0
2017-Oct-25 21:30N 34°37' E 135°19'0 0.0
2017-Oct-25 21:00N 34°37' E 135°19'0 0.0
2017-Oct-25 20:30N 34°37' E 135°19'0 0.0
2017-Oct-25 20:00N 34°37' E 135°19'0 0.0
2017-Oct-25 19:30N 34°37' E 135°19'0 0.0
2017-Oct-25 19:00N 34°37' E 135°19'0 0.0
2017-Oct-25 18:30N 34°37' E 135°19'0 0.6
2017-Oct-25 18:00N 34°37' E 135°19'510.2
2017-Oct-25 17:30N 34°33' E 135°15'510.5
2017-Oct-25 17:00N 34°29' E 135°12'510.4
2017-Oct-25 16:30N 34°24' E 135°09'510.3
2017-Oct-25 15:59N 34°20' E 135°05'510.0
2017-Oct-25 15:30N 34°15' E 135°03'510.7
2017-Oct-25 15:00N 34°10' E 135°02'510.5
2017-Oct-25 14:30N 34°05' E 135°02'208 8.5
2017-Oct-24 14:04N 34°48' E 139°09'210.7
2017-Oct-24 13:53N 34°50' E 139°11'1310.1
2017-Oct-24 12:37N 34°57' E 139°23'4 8.8
2017-Oct-24 12:12N 34°59' E 139°27'2 9.2
2017-Oct-24 11:58N 35°00' E 139°29'5 9.9
2017-Oct-24 11:30N 35°03' E 139°34'510.1
2017-Oct-24 11:00N 35°06' E 139°39'511.1
2017-Oct-24 10:30N 35°10' E 139°44'511.1
2017-Oct-24 10:00N 35°15' E 139°46'611.2
2017-Oct-24 09:30N 35°20' E 139°43'510.7
2017-Oct-24 09:00N 35°25' E 139°43'611.3
2017-Oct-24 08:30N 35°28' E 139°49'611.0
2017-Oct-24 07:59N 35°31' E 139°55'  
2017-Oct-19 07:38N 35°30' E 140°01'1 0.4
2017-Oct-19 05:21N 35°30' E 139°60'3 7.0
2017-Oct-19 04:57N 35°30' E 139°57'4 9.8
2017-Oct-19 04:30N 35°28' E 139°51'5 9.6
2017-Oct-19 04:00N 35°25' E 139°47'5 9.9
2017-Oct-19 03:31N 35°20' E 139°45'5 9.2
2017-Oct-19 03:00N 35°16' E 139°46'4 8.9
2017-Oct-19 02:30N 35°12' E 139°47'4 8.9
2017-Oct-19 02:00N 35°07' E 139°46'4 8.0
2017-Oct-19 01:30N 35°04' E 139°43'4 8.3
2017-Oct-19 01:01N 35°01' E 139°39'5 9.3
2017-Oct-19 00:31N 34°59' E 139°34'5 9.4
2017-Oct-18 23:59N 34°56' E 139°29'  

Dump ship's entire track history